Time;durP1;ratioP1;P1;durP2;ratioP2;P2;SDS_P1;SDS_P2;PMS_P1;PMS_P2;Temp;Humidity;BMP_temperature;BMP_pressure;BME280_temperature;BME280_humidity;BME280_pressure;Samples;Min_cycle;Max_cycle;Signal;HPM_P1;HPM_P2
2021/04/24 04:01:32;;;;;;;14.38;7.97;;;3.70;99.90;;;;;;5428253;23;20265;-69
2021/04/24 04:03:58;;;;;;;16.52;7.38;;;3.70;99.90;;;;;;4936686;29;20214;-69
2021/04/24 04:06:24;;;;;;;13.98;8.07;;;3.70;99.90;;;;;;4937021;28;20221;-70
2021/04/24 04:08:50;;;;;;;14.27;6.53;;;3.70;99.90;;;;;;4937222;29;20209;-70
2021/04/24 04:11:17;;;;;;;12.88;7.00;;;3.70;99.90;;;;;;4936471;29;20257;-70
2021/04/24 04:13:43;;;;;;;14.07;7.20;;;3.70;99.90;;;;;;4936731;29;20209;-70
2021/04/24 04:16:09;;;;;;;13.30;7.43;;;3.70;99.90;;;;;;4937497;29;20218;-70
2021/04/24 04:18:36;;;;;;;12.18;7.38;;;3.70;99.90;;;;;;4937181;29;20221;-70
2021/04/24 04:21:04;;;;;;;14.52;8.32;;;3.70;99.90;;;;;;4937158;29;20234;-70
2021/04/24 04:23:31;;;;;;;9.50;5.65;;;3.70;99.90;;;;;;4936964;29;20210;-70
2021/04/24 04:25:58;;;;;;;18.27;8.20;;;3.70;99.90;;;;;;4937334;29;20277;-70
2021/04/24 04:28:24;;;;;;;10.18;6.85;;;3.70;99.90;;;;;;4937090;29;20232;-70
2021/04/24 04:30:52;;;;;;;13.80;6.90;;;3.80;99.90;;;;;;4936649;29;20234;-70
2021/04/24 04:33:18;;;;;;;20.58;7.47;;;3.80;99.90;;;;;;4937155;29;20206;-70
2021/04/24 04:35:47;;;;;;;11.45;7.80;;;3.90;99.90;;;;;;4936842;29;20391;-70
2021/04/24 04:38:14;;;;;;;16.10;7.15;;;4.00;99.90;;;;;;4937144;29;20627;-70
2021/04/24 04:40:42;;;;;;;13.85;7.00;;;4.00;99.90;;;;;;4936746;29;20318;-70
2021/04/24 04:43:08;;;;;;;10.82;7.75;;;4.10;99.90;;;;;;4936236;29;20209;-70
2021/04/24 04:45:35;;;;;;;12.25;6.57;;;4.20;99.90;;;;;;4936608;29;20206;-70
2021/04/24 04:48:02;;;;;;;8.50;6.05;;;4.30;99.90;;;;;;4936600;29;20257;-70
2021/04/24 04:50:30;;;;;;;13.10;7.18;;;4.30;99.90;;;;;;4936247;29;20230;-70
2021/04/24 04:52:58;;;;;;;15.20;6.82;;;4.40;99.90;;;;;;4936335;29;20284;-70
2021/04/24 04:55:26;;;;;;;11.65;6.88;;;4.40;99.90;;;;;;4936230;29;20328;-70
2021/04/24 04:57:52;;;;;;;9.68;6.22;;;4.50;99.90;;;;;;4936476;29;20343;-70
2021/04/24 05:00:21;;;;;;;13.18;7.93;;;4.60;99.90;;;;;;4936389;29;20221;-70
2021/04/24 05:02:48;;;;;;;10.15;6.95;;;4.60;99.90;;;;;;4936089;29;20202;-70
2021/04/24 05:05:15;;;;;;;10.05;6.65;;;4.60;99.90;;;;;;4936540;29;20244;-70
2021/04/24 05:07:42;;;;;;;9.93;6.82;;;4.70;99.90;;;;;;4936179;28;20222;-70
2021/04/24 05:10:11;;;;;;;11.43;6.57;;;4.80;99.90;;;;;;4935875;29;20206;-70
2021/04/24 05:12:37;;;;;;;12.23;6.38;;;4.80;99.90;;;;;;4935445;29;20241;-70
2021/04/24 05:15:04;;;;;;;12.35;6.68;;;4.90;99.90;;;;;;4935463;29;20300;-70
2021/04/24 05:17:31;;;;;;;11.75;6.05;;;5.00;99.90;;;;;;4935758;29;20221;-70
2021/04/24 05:19:57;;;;;;;8.70;6.75;;;5.00;99.90;;;;;;4935888;29;20262;-69
2021/04/24 05:22:23;;;;;;;9.27;6.05;;;5.10;99.90;;;;;;4935958;29;20225;-73
2021/04/24 05:24:49;;;;;;;11.98;6.18;;;5.10;99.90;;;;;;4936120;29;20212;-70
2021/04/24 05:27:16;;;;;;;6.70;6.05;;;5.20;99.90;;;;;;4935545;29;20220;-69
2021/04/24 05:29:43;;;;;;;14.07;6.35;;;5.30;99.90;;;;;;4935358;29;20564;-69
2021/04/24 05:32:09;;;;;;;7.22;6.45;;;5.50;99.90;;;;;;4935417;29;20333;-69
2021/04/24 05:34:35;;;;;;;8.65;6.25;;;5.60;99.90;;;;;;4935956;29;20566;-69
2021/04/24 05:37:02;;;;;;;12.55;6.70;;;5.60;99.90;;;;;;4935913;29;20269;-69
2021/04/24 05:39:28;;;;;;;9.82;5.57;;;5.70;99.90;;;;;;4935698;29;20210;-69
2021/04/24 05:41:54;;;;;;;11.55;6.38;;;5.70;99.90;;;;;;4935317;29;20592;-69
2021/04/24 05:44:21;;;;;;;9.93;5.90;;;5.80;99.90;;;;;;4935113;29;20344;-71
2021/04/24 05:46:47;;;;;;;5.80;4.35;;;6.00;99.90;;;;;;4935756;29;20524;-73
2021/04/24 05:49:13;;;;;;;8.32;6.13;;;6.10;99.90;;;;;;4936018;29;20242;-73
2021/04/24 05:51:39;;;;;;;16.80;8.95;;;6.20;99.90;;;;;;4936062;29;20229;-72
2021/04/24 05:54:06;;;;;;;10.18;5.68;;;6.30;99.90;;;;;;4936508;29;20790;-72
2021/04/24 05:56:32;;;;;;;10.23;5.90;;;6.30;99.90;;;;;;4935414;29;20272;-70
2021/04/24 05:58:58;;;;;;;11.18;5.32;;;6.40;99.90;;;;;;4934987;29;20214;-70
2021/04/24 06:01:25;;;;;;;13.45;6.30;;;6.40;99.90;;;;;;4935514;29;20690;-70
2021/04/24 06:03:54;;;;;;;10.98;7.63;;;6.50;99.90;;;;;;4935862;29;20205;-69
2021/04/24 06:06:20;;;;;;;8.43;5.32;;;6.60;99.90;;;;;;4936355;29;20225;-68
2021/04/24 06:08:46;;;;;;;11.27;5.00;;;6.80;99.90;;;;;;4938883;29;20214;-68
2021/04/24 06:11:13;;;;;;;9.95;5.75;;;6.90;99.90;;;;;;4939739;29;20260;-69
2021/04/24 06:13:39;;;;;;;7.75;4.90;;;7.00;99.90;;;;;;4938013;29;20214;-70
2021/04/24 06:16:06;;;;;;;8.65;5.68;;;7.00;99.90;;;;;;4936902;29;20229;-73
2021/04/24 06:18:33;;;;;;;9.57;5.68;;;7.10;99.90;;;;;;4936876;29;20297;-71
2021/04/24 06:20:59;;;;;;;13.23;5.90;;;7.20;99.90;;;;;;4936829;29;20264;-70
2021/04/24 06:23:26;;;;;;;11.45;6.10;;;7.20;99.90;;;;;;4936149;29;20213;-70
2021/04/24 06:25:52;;;;;;;8.63;4.60;;;7.30;99.90;;;;;;4936225;29;20209;-69
2021/04/24 06:28:18;;;;;;;12.20;5.53;;;7.40;99.90;;;;;;4936333;29;20213;-70
2021/04/24 06:30:44;;;;;;;8.00;5.57;;;7.50;99.90;;;;;;4936652;29;20717;-70
2021/04/24 06:33:11;;;;;;;7.30;5.40;;;7.60;99.90;;;;;;4935925;29;20233;-70
2021/04/24 06:35:38;;;;;;;6.32;5.40;;;7.70;99.90;;;;;;4935176;29;20213;-70
2021/04/24 06:38:04;;;;;;;8.80;5.50;;;7.90;99.90;;;;;;4935180;29;20214;-70
2021/04/24 06:40:30;;;;;;;6.15;5.00;;;8.10;99.90;;;;;;4934862;29;20240;-70
2021/04/24 06:42:56;;;;;;;7.53;4.80;;;8.40;99.90;;;;;;4934398;29;20698;-70
2021/04/24 06:45:23;;;;;;;8.48;4.85;;;8.60;99.90;;;;;;4934664;29;20221;-67
2021/04/24 06:47:50;;;;;;;4.93;4.43;;;8.80;99.90;;;;;;4934905;29;20214;-70
2021/04/24 06:50:17;;;;;;;9.80;4.10;;;8.90;99.90;;;;;;4934561;29;20210;-69
2021/04/24 06:52:44;;;;;;;4.47;4.05;;;9.00;99.90;;;;;;4934793;29;20288;-70
2021/04/24 06:55:13;;;;;;;4.35;4.00;;;9.30;99.90;;;;;;4934967;29;20209;-74
2021/04/24 06:57:39;;;;;;;7.25;3.80;;;9.30;99.90;;;;;;4936469;29;20210;-74
2021/04/24 07:00:08;;;;;;;7.75;4.15;;;9.10;99.90;;;;;;4936922;29;20225;-74
2021/04/24 07:02:35;;;;;;;5.50;3.38;;;9.50;99.90;;;;;;4936722;29;20323;-74
2021/04/24 07:05:01;;;;;;;9.75;4.00;;;9.70;99.90;;;;;;4937090;29;20729;-74
2021/04/24 07:07:27;;;;;;;8.98;3.90;;;9.90;99.90;;;;;;4937461;28;20243;-74
2021/04/24 07:09:54;;;;;;;5.53;4.28;;;9.70;99.90;;;;;;4937365;29;20210;-74
2021/04/24 07:12:20;;;;;;;6.95;4.15;;;9.50;99.90;;;;;;4936896;29;20240;-74
2021/04/24 07:14:46;;;;;;;6.40;4.00;;;9.40;99.90;;;;;;4935195;29;20233;-74
2021/04/24 07:17:13;;;;;;;6.25;4.15;;;9.50;99.90;;;;;;4934676;29;20210;-74
2021/04/24 07:19:39;;;;;;;8.02;4.60;;;9.60;99.90;;;;;;4936858;29;20225;-74
2021/04/24 07:22:05;;;;;;;10.05;5.03;;;9.80;99.90;;;;;;4938003;29;20230;-73
2021/04/24 07:24:32;;;;;;;7.45;4.82;;;9.90;99.90;;;;;;4938189;29;20214;-73
2021/04/24 07:26:59;;;;;;;6.68;4.63;;;10.70;99.90;;;;;;4937999;29;20622;-72
2021/04/24 07:29:25;;;;;;;7.30;4.00;;;11.50;99.90;;;;;;4937606;29;20214;-71
2021/04/24 07:31:51;;;;;;;8.23;4.80;;;11.70;99.90;;;;;;4937871;29;20519;-71
2021/04/24 07:34:18;;;;;;;6.40;4.97;;;11.50;99.90;;;;;;4937704;29;20465;-71
2021/04/24 07:36:44;;;;;;;5.43;4.50;;;11.80;99.90;;;;;;4937772;29;20556;-71
2021/04/24 07:39:10;;;;;;;6.00;4.70;;;11.90;99.90;;;;;;4937459;29;20984;-71
2021/04/24 07:41:37;;;;;;;6.70;6.00;;;11.70;99.90;;;;;;4937525;29;20484;-71
2021/04/24 07:44:04;;;;;;;6.23;4.50;;;11.30;99.90;;;;;;4937374;29;20473;-71
2021/04/24 07:46:31;;;;;;;6.00;3.80;;;11.10;99.90;;;;;;4937963;29;20473;-71
2021/04/24 07:48:57;;;;;;;7.85;5.55;;;10.80;99.90;;;;;;4937678;29;20233;-71
2021/04/24 07:51:23;;;;;;;11.07;6.85;;;10.50;99.90;;;;;;4937501;29;20236;-71
2021/04/24 07:53:49;;;;;;;13.50;9.55;;;10.40;99.90;;;;;;4937550;29;20638;-73
2021/04/24 07:56:16;;;;;;;9.65;6.88;;;10.30;99.90;;;;;;4937498;29;20220;-73
2021/04/24 07:58:42;;;;;;;12.60;5.85;;;10.40;99.90;;;;;;4937402;29;20209;-73
2021/04/24 08:01:09;;;;;;;5.85;5.07;;;10.50;99.90;;;;;;4937664;29;20242;-72
2021/04/24 08:03:35;;;;;;;7.93;4.97;;;10.50;99.90;;;;;;4937853;29;20236;-73
2021/04/24 08:06:01;;;;;;;8.00;4.10;;;10.40;99.90;;;;;;4937449;29;20546;-72
2021/04/24 08:08:28;;;;;;;4.95;4.20;;;10.40;99.90;;;;;;4937682;29;20190;-74
2021/04/24 08:10:54;;;;;;;5.90;3.53;;;10.40;99.90;;;;;;4937314;29;20274;-74
2021/04/24 08:13:20;;;;;;;5.03;4.32;;;10.40;99.90;;;;;;4936853;29;20598;-70
2021/04/24 08:15:47;;;;;;;5.07;4.57;;;10.40;99.90;;;;;;4936691;29;20213;-70
2021/04/24 08:18:14;;;;;;;11.45;3.70;;;10.40;99.90;;;;;;4937119;29;20240;-70
2021/04/24 08:20:40;;;;;;;5.10;3.30;;;10.40;99.90;;;;;;4936690;29;20241;-70
2021/04/24 08:23:07;;;;;;;4.10;3.35;;;10.40;99.90;;;;;;4937099;29;20214;-70
2021/04/24 08:25:34;;;;;;;6.05;5.47;;;10.40;99.90;;;;;;4936842;29;20240;-70
2021/04/24 08:28:00;;;;;;;4.70;4.30;;;10.40;99.90;;;;;;4936565;29;20214;-70
2021/04/24 08:30:27;;;;;;;5.22;3.85;;;10.50;99.90;;;;;;4935642;29;20234;-69
2021/04/24 08:32:53;;;;;;;9.13;4.47;;;10.60;99.90;;;;;;4936581;29;20225;-68
2021/04/24 08:35:20;;;;;;;5.70;3.42;;;10.60;99.90;;;;;;4936678;29;20256;-68
2021/04/24 08:37:46;;;;;;;4.82;3.47;;;10.30;99.90;;;;;;4937040;29;20214;-68
2021/04/24 08:40:15;;;;;;;3.00;2.80;;;10.20;99.90;;;;;;4936658;29;20305;-68
2021/04/24 08:42:42;;;;;;;3.67;3.38;;;10.20;99.90;;;;;;4936327;29;20568;-69
2021/04/24 08:45:17;;;;;;;3.05;2.85;;;10.30;99.90;;;;;;4936203;29;20209;-68
2021/04/24 08:47:46;;;;;;;5.30;2.80;;;10.40;99.90;;;;;;4936670;29;20216;-68
2021/04/24 08:50:18;;;;;;;2.63;2.47;;;10.40;99.90;;;;;;4936905;29;20272;-69
2021/04/24 08:52:46;;;;;;;4.93;3.17;;;10.50;99.90;;;;;;4937603;29;20241;-70
2021/04/24 08:55:18;;;;;;;3.80;2.50;;;10.70;99.90;;;;;;4937517;29;20214;-70
2021/04/24 08:57:44;;;;;;;5.07;2.78;;;10.80;99.90;;;;;;4937298;29;20228;-69
2021/04/24 09:00:12;;;;;;;7.85;2.90;;;10.80;99.90;;;;;;4946430;29;20200;-70
2021/04/24 09:02:41;;;;;;;3.88;2.30;;;10.80;99.90;;;;;;4942286;29;20217;-69
2021/04/24 09:05:09;;;;;;;3.33;2.45;;;11.00;99.90;;;;;;4937249;29;20226;-68
2021/04/24 09:07:35;;;;;;;3.08;2.78;;;11.20;99.90;;;;;;4936579;28;20213;-69
2021/04/24 09:10:03;;;;;;;3.35;2.78;;;11.30;99.90;;;;;;4936497;29;20217;-69
2021/04/24 09:12:37;;;;;;;2.55;2.38;;;11.20;99.90;;;;;;4936049;29;20710;-70
2021/04/24 09:15:12;;;;;;;7.53;2.85;;;11.10;99.90;;;;;;4937745;29;20210;-70
2021/04/24 09:17:49;;;;;;;4.93;2.75;;;11.00;99.90;;;;;;4936554;29;20670;-69
2021/04/24 09:20:17;;;;;;;3.67;3.30;;;11.10;99.90;;;;;;4936627;29;20293;-70
2021/04/24 09:22:52;;;;;;;3.78;3.45;;;11.30;99.90;;;;;;4936077;29;20229;-70
2021/04/24 09:25:19;;;;;;;4.00;3.67;;;11.50;99.90;;;;;;4935849;29;20607;-70
2021/04/24 09:27:47;;;;;;;3.55;3.33;;;11.40;99.90;;;;;;4935667;29;20217;-72
2021/04/24 09:30:17;;;;;;;5.63;4.90;;;11.30;99.90;;;;;;4935714;29;20304;-72
2021/04/24 09:32:43;;;;;;;4.57;3.45;;;11.20;99.90;;;;;;4935763;29;20761;-72
2021/04/24 09:35:14;;;;;;;2.70;2.60;;;11.30;99.90;;;;;;4936115;29;20225;-72
2021/04/24 09:37:40;;;;;;;3.63;2.45;;;11.50;99.90;;;;;;4936297;29;20217;-72
2021/04/24 09:40:11;;;;;;;4.20;2.70;;;11.50;99.90;;;;;;4935957;29;20213;-72
2021/04/24 09:42:39;;;;;;;2.65;2.50;;;11.50;99.90;;;;;;4935567;29;20205;-72
2021/04/24 09:45:23;;;;;;;3.25;3.00;;;11.50;99.90;;;;;;4935285;29;20321;-72
2021/04/24 09:47:50;;;;;;;9.27;8.35;;;11.60;99.90;;;;;;4935756;29;20226;-72
2021/04/24 09:50:18;;;;;;;4.22;3.60;;;11.70;99.90;;;;;;4935396;29;20649;-71
2021/04/24 09:52:45;;;;;;;3.08;2.78;;;11.70;99.90;;;;;;4935569;29;20297;-71
2021/04/24 09:55:16;;;;;;;3.17;2.10;;;11.90;99.40;;;;;;4935201;29;20210;-71
2021/04/24 09:57:43;;;;;;;2.40;2.20;;;11.90;97.80;;;;;;4935076;29;20213;-72
2021/04/24 10:00:14;;;;;;;2.30;2.10;;;12.00;96.70;;;;;;4935138;29;20216;-71
2021/04/24 10:02:42;;;;;;;3.67;2.75;;;12.20;94.70;;;;;;4936440;29;20225;-73
2021/04/24 10:05:11;;;;;;;4.28;2.33;;;12.20;95.80;;;;;;4936043;29;20670;-73
2021/04/24 10:07:38;;;;;;;2.55;1.85;;;12.10;96.20;;;;;;4935696;29;20691;-73
2021/04/24 10:10:08;;;;;;;2.17;2.00;;;12.00;96.10;;;;;;4935601;29;20217;-74
2021/04/24 10:12:34;;;;;;;3.17;2.25;;;12.00;96.50;;;;;;4934840;29;20229;-74
2021/04/24 10:15:02;;;;;;;3.88;3.15;;;12.20;96.40;;;;;;4934988;29;20293;-73
2021/04/24 10:17:29;;;;;;;4.85;2.78;;;12.40;95.70;;;;;;4935103;29;20209;-74
2021/04/24 10:19:55;;;;;;;2.55;2.20;;;12.60;94.90;;;;;;4935032;29;20265;-74
2021/04/24 10:22:23;;;;;;;4.07;1.45;;;12.50;91.10;;;;;;4935135;29;20249;-74
2021/04/24 10:24:51;;;;;;;2.92;2.03;;;12.40;88.40;;;;;;4935211;29;20209;-73
2021/04/24 10:27:20;;;;;;;3.97;2.75;;;12.40;90.90;;;;;;4934972;29;20244;-74
2021/04/24 10:29:48;;;;;;;2.35;1.90;;;12.40;91.60;;;;;;4934487;29;20221;-73
2021/04/24 10:32:15;;;;;;;2.63;2.42;;;12.40;91.90;;;;;;4934989;29;20268;-73
2021/04/24 10:34:43;;;;;;;2.97;2.47;;;12.50;91.50;;;;;;4934720;29;20551;-74
2021/04/24 10:37:09;;;;;;;2.25;2.05;;;12.60;90.50;;;;;;4935145;29;20214;-74
2021/04/24 10:39:37;;;;;;;1.80;1.70;;;12.80;88.60;;;;;;4935098;29;20214;-74
2021/04/24 10:42:10;;;;;;;2.03;1.92;;;13.00;88.40;;;;;;4934673;29;20226;-73
2021/04/24 10:44:51;;;;;;;4.18;2.40;;;13.20;87.30;;;;;;4934766;29;20233;-74
2021/04/24 10:47:43;;;;;;;1.50;1.50;;;13.20;84.70;;;;;;4935216;29;20205;-75
2021/04/24 10:50:11;;;;;;;2.50;2.30;;;13.20;84.40;;;;;;4935113;29;20213;-73
2021/04/24 10:52:38;;;;;;;1.88;1.73;;;13.20;83.50;;;;;;4934526;29;20226;-74
2021/04/24 10:55:23;;;;;;;1.98;1.88;;;13.20;84.50;;;;;;4938008;29;20221;-75
2021/04/24 10:57:51;;;;;;;3.90;2.00;;;13.20;83.50;;;;;;4938793;29;20213;-75
2021/04/24 11:00:20;;;;;;;3.95;2.10;;;13.20;83.70;;;;;;4938497;29;20556;-74
2021/04/24 11:02:49;;;;;;;1.77;1.70;;;13.40;83.40;;;;;;4938727;29;20308;-74
2021/04/24 11:05:26;;;;;;;2.70;2.60;;;13.30;81.90;;;;;;4938727;29;20216;-74
2021/04/24 11:08:33;;;;;;;1.80;1.70;;;13.30;80.30;;;;;;4938670;28;20504;-74
2021/04/24 11:11:06;;;;;;;3.45;1.60;;;13.20;79.30;;;;;;4938793;29;20481;-74
2021/04/24 11:13:35;;;;;;;2.78;2.55;;;13.30;80.10;;;;;;4938446;29;20237;-74
2021/04/24 11:16:04;;;;;;;2.73;2.10;;;13.40;79.00;;;;;;4939065;29;20299;-69
2021/04/24 11:18:32;;;;;;;3.78;2.10;;;13.50;77.80;;;;;;4939530;29;20481;-72
2021/04/24 11:21:01;;;;;;;3.08;2.38;;;13.40;78.00;;;;;;4939590;29;20234;-69
2021/04/24 11:23:53;;;;;;;3.50;2.20;;;13.40;78.00;;;;;;4939880;29;20241;-69
2021/04/24 11:26:46;;;;;;;2.25;1.95;;;13.60;76.90;;;;;;4939392;29;20209;-70
2021/04/24 11:29:13;;;;;;;2.00;1.90;;;13.70;77.70;;;;;;4939331;29;20214;-69
2021/04/24 11:32:08;;;;;;;2.60;1.87;;;13.80;76.60;;;;;;4938455;29;20229;-69
2021/04/24 11:34:46;;;;;;;2.40;1.73;;;13.60;78.90;;;;;;4938612;29;20541;-69
2021/04/24 11:37:32;;;;;;;1.88;1.88;;;13.30;80.60;;;;;;4940324;29;20469;-72
2021/04/24 11:40:10;;;;;;;2.28;2.08;;;13.10;80.10;;;;;;4939661;29;20221;-72
2021/04/24 11:42:38;;;;;;;2.35;1.95;;;13.10;79.30;;;;;;4939041;29;20650;-72
2021/04/24 11:45:15;;;;;;;1.97;1.77;;;13.10;80.40;;;;;;4937625;29;20320;-72
2021/04/24 11:47:50;;;;;;;3.17;2.30;;;13.20;78.70;;;;;;4937865;29;20465;-72
2021/04/24 11:50:19;;;;;;;1.70;1.70;;;13.20;77.80;;;;;;4937669;29;20821;-72
2021/04/24 11:52:53;;;;;;;2.17;1.80;;;13.30;76.20;;;;;;4937220;29;20300;-72
2021/04/24 11:55:20;;;;;;;3.13;1.70;;;13.40;76.60;;;;;;4937464;29;20210;-72
2021/04/24 11:57:46;;;;;;;1.80;1.70;;;13.50;77.10;;;;;;4937556;29;20218;-72
2021/04/24 12:00:14;;;;;;;1.73;1.65;;;13.60;75.30;;;;;;4937344;29;20225;-74
2021/04/24 12:02:46;;;;;;;1.70;1.60;;;13.50;75.30;;;;;;4937585;29;20304;-75
2021/04/24 12:05:14;;;;;;;2.92;2.03;;;13.30;74.80;;;;;;4936683;29;20214;-75
2021/04/24 12:07:42;;;;;;;1.90;1.80;;;13.20;75.30;;;;;;4937072;28;20213;-72
2021/04/24 12:10:12;;;;;;;2.08;1.92;;;13.00;74.90;;;;;;4936759;29;20579;-72
2021/04/24 12:12:39;;;;;;;2.85;2.10;;;13.00;75.60;;;;;;4936818;29;20595;-72
2021/04/24 12:15:08;;;;;;;2.40;2.20;;;12.90;77.80;;;;;;4936535;29;20220;-72
2021/04/24 12:17:35;;;;;;;4.97;2.20;;;13.00;77.90;;;;;;4937228;29;20214;-72
2021/04/24 12:20:03;;;;;;;2.42;2.00;;;13.00;76.70;;;;;;4936992;29;20221;-72
2021/04/24 12:22:37;;;;;;;1.83;1.73;;;13.10;77.70;;;;;;4936488;29;20229;-72
2021/04/24 12:25:06;;;;;;;2.28;2.13;;;13.20;74.10;;;;;;4937227;29;20269;-72
2021/04/24 12:27:40;;;;;;;1.98;1.88;;;13.20;72.70;;;;;;4936585;29;20210;-72
2021/04/24 12:30:13;;;;;;;4.15;2.50;;;13.30;73.00;;;;;;4936604;29;20251;-72
2021/04/24 12:32:40;;;;;;;2.10;2.00;;;13.40;72.60;;;;;;4936476;29;20225;-73
2021/04/24 12:35:13;;;;;;;2.13;1.92;;;13.50;72.90;;;;;;4936686;29;20465;-72
2021/04/24 12:37:41;;;;;;;3.20;2.23;;;13.60;73.30;;;;;;4936713;29;20663;-72
2021/04/24 12:40:11;;;;;;;2.70;2.50;;;13.60;73.00;;;;;;4936322;29;21037;-72
2021/04/24 12:42:38;;;;;;;2.70;2.50;;;13.60;72.40;;;;;;4936227;29;20476;-70
2021/04/24 12:45:23;;;;;;;2.25;1.92;;;13.50;73.60;;;;;;4936289;29;20577;-70
2021/04/24 12:47:50;;;;;;;3.70;1.95;;;13.60;72.00;;;;;;4936817;29;20280;-69
2021/04/24 12:50:23;;;;;;;2.22;1.98;;;13.50;73.60;;;;;;4936392;29;20210;-70
2021/04/24 12:52:53;;;;;;;3.03;2.20;;;13.60;72.90;;;;;;4936429;29;20226;-70
2021/04/24 12:55:20;;;;;;;2.35;2.15;;;13.70;73.40;;;;;;4936455;29;20470;-69
2021/04/24 12:57:52;;;;;;;1.70;1.60;;;13.80;72.80;;;;;;4935920;29;20269;-71
2021/04/24 13:00:21;;;;;;;2.50;1.60;;;13.70;71.10;;;;;;4935975;29;20214;-69
2021/04/24 13:02:47;;;;;;;2.25;1.73;;;13.50;69.70;;;;;;4936471;29;20462;-69
2021/04/24 13:05:14;;;;;;;2.10;1.98;;;13.30;69.50;;;;;;4936213;29;20228;-69
2021/04/24 13:07:40;;;;;;;2.10;2.00;;;13.20;71.20;;;;;;4936359;28;20706;-69
2021/04/24 13:10:17;;;;;;;2.47;2.10;;;13.30;72.10;;;;;;4936165;29;20225;-70
2021/04/24 13:12:53;;;;;;;2.22;2.00;;;13.30;70.50;;;;;;4936017;29;20240;-69
2021/04/24 13:15:20;;;;;;;2.35;1.90;;;13.40;70.70;;;;;;4935936;29;20237;-70
2021/04/24 13:17:46;;;;;;;2.42;2.20;;;13.50;71.30;;;;;;4935861;29;20218;-69
2021/04/24 13:20:26;;;;;;;2.60;2.50;;;13.80;71.10;;;;;;4935947;29;20265;-69
2021/04/24 13:22:52;;;;;;;2.40;2.30;;;13.90;69.40;;;;;;4935445;29;20224;-69
2021/04/24 13:25:30;;;;;;;2.83;2.15;;;13.90;69.20;;;;;;4935821;29;20704;-69
2021/04/24 13:27:57;;;;;;;2.20;2.00;;;13.70;69.50;;;;;;4935253;29;20218;-68
2021/04/24 13:30:25;;;;;;;2.30;2.20;;;13.50;70.70;;;;;;4935598;29;20206;-71
2021/04/24 13:32:58;;;;;;;4.63;2.55;;;13.50;70.80;;;;;;4935585;29;20333;-69
2021/04/24 13:35:42;;;;;;;2.40;2.03;;;13.50;70.60;;;;;;4935545;29;20209;-70
2021/04/24 13:38:08;;;;;;;2.60;2.50;;;13.50;70.30;;;;;;4935885;29;20214;-70
2021/04/24 13:40:34;;;;;;;2.53;2.20;;;13.60;70.30;;;;;;4935569;29;20489;-70
2021/04/24 13:43:01;;;;;;;2.30;2.10;;;13.80;70.20;;;;;;4935151;29;20205;-70
2021/04/24 13:45:29;;;;;;;7.97;5.00;;;13.90;70.00;;;;;;4935158;29;20210;-69
2021/04/24 13:48:00;;;;;;;4.55;3.22;;;14.00;70.70;;;;;;4935603;29;20217;-72
2021/04/24 13:50:28;;;;;;;3.20;2.87;;;14.20;69.90;;;;;;4935522;29;20234;-74
2021/04/24 13:52:55;;;;;;;3.73;2.30;;;14.20;68.10;;;;;;4935001;29;21029;-74
2021/04/24 13:55:21;;;;;;;2.83;2.37;;;14.20;69.30;;;;;;4935558;29;20533;-74
2021/04/24 13:57:47;;;;;;;2.53;2.37;;;14.20;69.70;;;;;;4935158;29;20469;-74
2021/04/24 14:00:17;;;;;;;2.90;2.60;;;14.20;69.60;;;;;;4934903;29;20838;-75
2021/04/24 14:02:43;;;;;;;5.38;2.83;;;14.00;69.50;;;;;;4935542;29;20458;-74
2021/04/24 14:05:11;;;;;;;3.15;2.85;;;13.90;70.20;;;;;;4935373;29;20217;-72
2021/04/24 14:07:37;;;;;;;2.20;2.10;;;13.80;69.70;;;;;;4935095;29;20686;-72
2021/04/24 14:10:04;;;;;;;2.22;2.13;;;13.60;70.60;;;;;;4935303;29;20206;-72
2021/04/24 14:12:30;;;;;;;3.45;2.90;;;13.60;70.80;;;;;;4934064;29;20237;-72
2021/04/24 14:14:56;;;;;;;3.13;2.83;;;13.80;70.20;;;;;;4934459;29;20213;-72
2021/04/24 14:17:24;;;;;;;2.75;2.53;;;13.80;68.40;;;;;;4934995;29;20346;-72
2021/04/24 14:19:50;;;;;;;2.83;2.63;;;14.00;68.50;;;;;;4934929;29;20695;-73
2021/04/24 14:22:16;;;;;;;3.53;2.97;;;14.10;68.20;;;;;;4935053;29;20486;-72
2021/04/24 14:24:43;;;;;;;4.00;2.70;;;14.10;68.70;;;;;;4935221;29;20466;-72
2021/04/24 14:27:10;;;;;;;2.80;2.70;;;14.20;67.90;;;;;;4934753;29;20469;-71
2021/04/24 14:29:37;;;;;;;2.10;2.00;;;14.40;66.70;;;;;;4934061;29;20480;-72
2021/04/24 14:32:03;;;;;;;2.40;2.30;;;14.50;67.70;;;;;;4934799;29;20536;-71
2021/04/24 14:34:31;;;;;;;5.50;2.77;;;14.60;67.90;;;;;;4935236;29;20469;-72
2021/04/24 14:36:57;;;;;;;2.57;2.37;;;14.80;66.10;;;;;;4934817;29;20469;-72
2021/04/24 14:39:23;;;;;;;5.00;2.50;;;14.70;65.10;;;;;;4934665;29;20470;-72
2021/04/24 14:41:49;;;;;;;3.07;2.50;;;14.70;65.50;;;;;;4934450;29;20497;-72
2021/04/24 14:44:16;;;;;;;2.80;2.60;;;14.60;66.10;;;;;;4934620;29;20465;-71
2021/04/24 14:46:42;;;;;;;8.13;2.90;;;14.30;66.00;;;;;;4934934;29;20462;-72
2021/04/24 14:49:08;;;;;;;3.60;2.80;;;14.30;66.40;;;;;;4934982;29;20484;-73
2021/04/24 14:51:35;;;;;;;3.03;2.75;;;14.20;65.30;;;;;;4934959;29;20493;-72
2021/04/24 14:54:01;;;;;;;3.70;3.43;;;14.20;67.20;;;;;;4934733;29;20225;-71
2021/04/24 14:56:28;;;;;;;8.07;3.03;;;14.20;67.20;;;;;;4934219;29;20473;-70
2021/04/24 14:58:54;;;;;;;3.30;2.63;;;14.30;67.80;;;;;;4934597;29;20474;-69
2021/04/24 15:01:20;;;;;;;6.30;3.27;;;14.30;68.00;;;;;;4934404;29;20502;-69
2021/04/24 15:03:46;;;;;;;3.92;2.90;;;14.30;67.70;;;;;;4934280;29;20473;-69
2021/04/24 15:06:12;;;;;;;3.28;3.08;;;14.30;67.50;;;;;;4934720;29;20225;-69
2021/04/24 15:08:40;;;;;;;2.95;2.75;;;14.10;67.40;;;;;;4934828;29;20248;-69
2021/04/24 15:11:06;;;;;;;3.05;2.75;;;14.10;67.90;;;;;;4934486;29;20297;-70
2021/04/24 15:13:32;;;;;;;3.70;2.73;;;14.10;67.50;;;;;;4933933;29;20230;-70
2021/04/24 15:15:59;;;;;;;2.80;2.37;;;14.10;68.40;;;;;;4934689;29;20473;-68
2021/04/24 15:18:26;;;;;;;2.57;2.33;;;13.90;66.30;;;;;;4934999;29;20540;-74
2021/04/24 15:20:52;;;;;;;5.32;2.67;;;13.70;66.70;;;;;;4934611;29;20486;-74
2021/04/24 15:23:18;;;;;;;2.33;2.20;;;13.30;66.60;;;;;;4934717;29;20276;-71
2021/04/24 15:25:45;;;;;;;2.65;2.45;;;13.30;68.50;;;;;;4934261;29;20210;-71
2021/04/24 15:28:11;;;;;;;1.95;1.85;;;13.40;70.70;;;;;;4934394;29;20581;-70
2021/04/24 15:30:38;;;;;;;2.90;2.70;;;13.40;70.20;;;;;;4934414;29;20267;-70
2021/04/24 15:33:06;;;;;;;4.22;2.80;;;13.30;70.00;;;;;;4934318;29;20226;-69
2021/04/24 15:35:33;;;;;;;4.75;3.25;;;13.20;69.30;;;;;;4934532;29;20214;-73
2021/04/24 15:38:00;;;;;;;2.95;2.75;;;13.20;70.20;;;;;;4934384;29;20214;-73
2021/04/24 15:40:26;;;;;;;2.80;2.60;;;13.30;70.10;;;;;;4935844;29;21152;-73
2021/04/24 15:42:53;;;;;;;4.13;2.78;;;13.30;69.60;;;;;;4937525;29;20206;-74
2021/04/24 15:45:20;;;;;;;4.10;3.00;;;13.30;68.80;;;;;;4937616;29;20214;-74
2021/04/24 15:47:47;;;;;;;2.28;2.17;;;13.20;69.50;;;;;;4937916;29;20222;-74
2021/04/24 15:50:15;;;;;;;3.03;2.83;;;13.10;69.70;;;;;;4938056;29;20274;-74
2021/04/24 15:52:41;;;;;;;4.13;2.10;;;13.10;69.80;;;;;;4937736;29;20313;-75
2021/04/24 15:55:09;;;;;;;3.20;2.88;;;13.00;68.70;;;;;;4938302;29;20210;-74
2021/04/24 15:57:42;;;;;;;3.20;3.00;;;13.00;68.60;;;;;;4937810;29;20217;-74
2021/04/24 16:00:10;;;;;;;4.07;2.47;;;13.10;69.30;;;;;;4938060;29;20268;-73
2021/04/24 16:02:36;;;;;;;2.78;2.35;;;13.10;69.70;;;;;;4937957;29;20674;-75
2021/04/24 16:05:03;;;;;;;3.05;2.75;;;13.30;69.40;;;;;;4937977;29;20205;-75
2021/04/24 16:07:29;;;;;;;6.53;3.10;;;13.40;69.30;;;;;;4937255;28;20217;-74
2021/04/24 16:09:55;;;;;;;4.80;2.42;;;13.30;68.60;;;;;;4937676;29;20218;-74
2021/04/24 16:12:21;;;;;;;2.53;2.33;;;13.30;68.80;;;;;;4936733;29;20229;-73
2021/04/24 16:14:48;;;;;;;4.75;2.53;;;13.40;69.00;;;;;;4936994;29;20210;-73
2021/04/24 16:17:15;;;;;;;3.15;2.90;;;13.40;69.30;;;;;;4937551;29;20290;-74
2021/04/24 16:19:41;;;;;;;2.50;2.30;;;13.30;69.50;;;;;;4937246;29;20214;-75
2021/04/24 16:22:07;;;;;;;2.65;2.47;;;13.30;68.90;;;;;;4937087;29;20237;-73
2021/04/24 16:24:33;;;;;;;4.97;2.58;;;13.20;69.70;;;;;;4937362;29;20236;-73
2021/04/24 16:27:00;;;;;;;4.25;2.92;;;13.10;69.50;;;;;;4936814;29;20580;-74
2021/04/24 16:29:26;;;;;;;4.85;3.00;;;13.10;69.20;;;;;;4936399;29;20221;-71
2021/04/24 16:31:52;;;;;;;2.50;2.30;;;13.10;69.40;;;;;;4936796;29;20230;-72
2021/04/24 16:34:19;;;;;;;2.95;2.75;;;13.10;68.60;;;;;;4937455;29;20671;-70
2021/04/24 16:36:45;;;;;;;3.08;2.83;;;13.10;68.60;;;;;;4939477;29;20535;-69
2021/04/24 16:39:12;;;;;;;2.90;2.70;;;13.20;69.10;;;;;;4938525;29;20368;-70
2021/04/24 16:41:38;;;;;;;2.80;2.50;;;13.20;67.90;;;;;;4937784;29;20313;-70
2021/04/24 16:44:05;;;;;;;2.97;2.78;;;13.30;69.60;;;;;;4938168;29;20265;-71
2021/04/24 16:46:31;;;;;;;2.53;2.42;;;13.30;68.80;;;;;;4938118;29;20254;-69
2021/04/24 16:48:57;;;;;;;3.30;3.10;;;13.40;68.50;;;;;;4937089;29;20214;-70
2021/04/24 16:51:24;;;;;;;4.85;3.55;;;13.50;68.10;;;;;;4936881;29;20313;-69
2021/04/24 16:53:51;;;;;;;3.22;2.90;;;13.50;66.70;;;;;;4936989;29;20250;-70